createdAt,value
2016-05-11T00:00:21.259Z,0
2016-05-11T00:01:21.246Z,0
2016-05-11T00:02:21.186Z,0
2016-05-11T00:03:21.158Z,0
2016-05-11T00:04:20.973Z,0
2016-05-11T00:05:21.100Z,0
2016-05-11T00:06:21.103Z,0
2016-05-11T00:07:21.028Z,0
2016-05-11T00:08:21.014Z,0
2016-05-11T00:09:20.815Z,0
2016-05-11T00:10:20.942Z,0
2016-05-11T00:11:20.929Z,0
2016-05-11T00:12:20.901Z,0
2016-05-11T00:13:20.700Z,0
2016-05-11T00:14:20.827Z,0
2016-05-11T00:15:20.800Z,0
2016-05-11T00:16:20.786Z,0
2016-05-11T00:17:20.586Z,0
2016-05-11T00:18:20.745Z,0
2016-05-11T00:19:20.669Z,0
2016-05-11T00:20:20.672Z,0
2016-05-11T00:21:20.612Z,0
2016-05-11T00:22:20.584Z,0
2016-05-11T00:23:20.399Z,0
2016-05-11T00:24:20.526Z,0
2016-05-11T00:25:20.343Z,0
2016-05-11T00:26:20.470Z,0
2016-05-11T00:27:20.441Z,0
2016-05-11T00:28:20.398Z,0
2016-05-11T00:29:20.212Z,0
2016-05-11T00:30:20.637Z,0
2016-05-11T00:31:20.326Z,0
2016-05-11T00:32:20.298Z,0
2016-05-11T00:33:20.254Z,0
2016-05-11T00:34:20.210Z,0
2016-05-11T00:35:20.197Z,0
2016-05-11T00:36:20.169Z,0
2016-05-11T00:37:20.125Z,0
2016-05-11T00:38:19.939Z,0
2016-05-11T00:39:20.067Z,0
2016-05-11T00:40:20.039Z,0
2016-05-11T00:41:20.010Z,0
2016-05-11T00:42:19.981Z,0
2016-05-11T00:43:19.952Z,0
2016-05-11T00:44:19.612Z,0
2016-05-11T00:45:19.989Z,0
2016-05-11T00:46:19.852Z,0
2016-05-11T00:47:19.824Z,0
2016-05-11T00:48:19.654Z,0
2016-05-11T00:49:19.766Z,0
2016-05-11T00:50:19.582Z,0
2016-05-11T00:51:19.709Z,0
2016-05-11T00:52:19.508Z,0
2016-05-11T00:53:19.635Z,0
2016-05-11T00:54:19.451Z,0
2016-05-11T00:55:19.579Z,0
2016-05-11T00:56:19.566Z,0
2016-05-11T00:57:19.365Z,0
2016-05-11T00:58:19.478Z,0
2016-05-11T00:59:19.152Z,0
2016-05-11T01:00:19.342Z,0
2016-05-11T01:01:19.267Z,0
2016-05-11T01:02:19.378Z,0
2016-05-11T01:03:19.334Z,0
2016-05-11T01:04:19.150Z,0
2016-05-11T01:05:19.278Z,0
2016-05-11T01:06:19.250Z,0
2016-05-11T01:07:19.220Z,0
2016-05-11T01:08:19.192Z,0
2016-05-11T01:09:19.007Z,0
2016-05-11T01:10:19.119Z,0
2016-05-11T01:11:18.950Z,0
2016-05-11T01:12:19.062Z,0
2016-05-11T01:13:19.034Z,0
2016-05-11T01:14:19.052Z,0
2016-05-11T01:15:19.492Z,0
2016-05-11T01:16:18.947Z,0
2016-05-11T01:17:18.764Z,0
2016-05-11T01:18:18.874Z,0
2016-05-11T01:19:18.862Z,0
2016-05-11T01:20:18.818Z,0
2016-05-11T01:21:18.805Z,0
2016-05-11T01:22:18.605Z,0
2016-05-11T01:23:18.748Z,0
2016-05-11T01:24:18.548Z,0
2016-05-11T01:25:18.206Z,0
2016-05-11T01:26:18.491Z,0
2016-05-11T01:27:18.618Z,0
2016-05-11T01:28:18.574Z,0
2016-05-11T01:29:18.546Z,0
2016-05-11T01:30:18.532Z,0
2016-05-11T01:31:18.472Z,0
2016-05-11T01:32:18.303Z,0
2016-05-11T01:33:18.276Z,0
2016-05-11T01:34:18.387Z,0
2016-05-11T01:35:18.374Z,0
2016-05-11T01:36:18.173Z,0
2016-05-11T01:37:18.286Z,0
2016-05-11T01:38:18.272Z,0
2016-05-11T01:39:18.245Z,0
2016-05-11T01:40:18.216Z,0
2016-05-11T01:41:18.186Z,0
2016-05-11T01:42:18.143Z,0
2016-05-11T01:43:18.114Z,0
2016-05-11T01:44:18.133Z,0
2016-05-11T01:45:18.589Z,0
2016-05-11T01:46:17.716Z,0
2016-05-11T01:47:18.046Z,0
2016-05-11T01:48:17.971Z,0
2016-05-11T01:49:17.928Z,0
2016-05-11T01:50:17.899Z,0
2016-05-11T01:51:17.574Z,0
2016-05-11T01:52:18.060Z,0
2016-05-11T01:53:17.766Z,0
2016-05-11T01:54:17.769Z,0
2016-05-11T01:55:17.740Z,0
2016-05-11T01:56:17.712Z,0
2016-05-11T01:57:17.683Z,0
2016-05-11T01:58:17.655Z,0
2016-05-11T01:59:17.626Z,0
2016-05-11T02:00:17.926Z,0
2016-05-11T02:01:17.475Z,0
2016-05-11T02:02:17.368Z,0
2016-05-11T02:03:17.495Z,0
2016-05-11T02:04:17.484Z,0
2016-05-11T02:05:17.440Z,0
2016-05-11T02:06:17.411Z,0
2016-05-11T02:07:17.209Z,0
2016-05-11T02:08:17.197Z,0
2016-05-11T02:09:17.309Z,0
2016-05-11T02:10:17.296Z,0
2016-05-11T02:11:17.252Z,0
2016-05-11T02:12:17.052Z,0
2016-05-11T02:13:17.023Z,0
2016-05-11T02:14:17.150Z,0
2016-05-11T02:15:16.825Z,0
2016-05-11T02:16:16.938Z,0
2016-05-11T02:17:17.066Z,0
2016-05-11T02:18:17.052Z,0
2016-05-11T02:19:16.992Z,0
2016-05-11T02:20:17.058Z,0
2016-05-11T02:21:16.951Z,0
2016-05-11T02:22:16.891Z,0
2016-05-11T02:23:16.878Z,0
2016-05-11T02:24:16.834Z,0
2016-05-11T02:25:16.805Z,0
2016-05-11T02:26:16.620Z,0
2016-05-11T02:27:16.435Z,0
2016-05-11T02:28:16.704Z,0
2016-05-11T02:29:16.676Z,0
2016-05-11T02:30:16.490Z,0
2016-05-11T02:31:16.462Z,0
2016-05-11T02:32:16.434Z,0
2016-05-11T02:33:16.390Z,0
2016-05-11T02:34:16.532Z,0
2016-05-11T02:35:16.332Z,0
2016-05-11T02:36:16.444Z,0
2016-05-11T02:37:16.431Z,0
2016-05-11T02:38:16.247Z,0
2016-05-11T02:39:16.359Z,0
2016-05-11T02:40:16.331Z,0
2016-05-11T02:41:16.301Z,0
2016-05-11T02:42:16.273Z,0
2016-05-11T02:43:16.228Z,0
2016-05-11T02:44:16.216Z,0
2016-05-11T02:45:16.249Z,0
2016-05-11T02:46:16.190Z,0
2016-05-11T02:47:16.099Z,0
2016-05-11T02:48:16.070Z,0
2016-05-11T02:49:16.042Z,0
2016-05-11T02:50:15.700Z,0
2016-05-11T02:51:15.828Z,0
2016-05-11T02:52:15.956Z,0
2016-05-11T02:53:15.912Z,0
2016-05-11T02:54:15.883Z,0
2016-05-11T02:55:15.855Z,0
2016-05-11T02:56:15.826Z,0
2016-05-11T02:57:15.782Z,0
2016-05-11T02:58:15.768Z,0
2016-05-11T02:59:15.413Z,0
2016-05-11T03:00:15.650Z,0
2016-05-11T03:01:15.652Z,0
2016-05-11T03:02:15.639Z,0
2016-05-11T03:03:15.298Z,0
2016-05-11T03:04:15.409Z,0
2016-05-11T03:05:15.537Z,0
2016-05-11T03:06:15.541Z,0
2016-05-11T03:07:15.481Z,0
2016-05-11T03:08:15.281Z,0
2016-05-11T03:09:15.392Z,0
2016-05-11T03:10:15.395Z,0
2016-05-11T03:11:15.350Z,0
2016-05-11T03:12:15.291Z,0
2016-05-11T03:13:15.262Z,0
2016-05-11T03:14:15.234Z,0
2016-05-11T03:15:15.533Z,0
2016-05-11T03:16:15.239Z,0
2016-05-11T03:17:15.164Z,0
2016-05-11T03:18:14.948Z,0
2016-05-11T03:19:15.091Z,0
2016-05-11T03:20:14.735Z,0
2016-05-11T03:21:15.018Z,0
2016-05-11T03:22:14.990Z,0
2016-05-11T03:23:14.961Z,0
2016-05-11T03:24:14.932Z,0
2016-05-11T03:25:14.874Z,0
2016-05-11T03:26:14.844Z,0
2016-05-11T03:27:14.800Z,0
2016-05-11T03:28:14.772Z,0
2016-05-11T03:29:14.759Z,0
2016-05-11T03:30:14.261Z,0
2016-05-11T03:31:14.708Z,0
2016-05-11T03:32:14.703Z,0
2016-05-11T03:33:14.745Z,0
2016-05-11T03:34:14.741Z,0
2016-05-11T03:35:14.736Z,0
2016-05-11T03:36:14.743Z,0
2016-05-11T03:37:14.713Z,0
2016-05-11T03:38:14.683Z,0
2016-05-11T03:39:14.669Z,0
2016-05-11T03:40:14.655Z,5
2016-05-11T03:41:14.654Z,5
2016-05-11T03:42:14.459Z,5
2016-05-11T03:43:14.591Z,5
2016-05-11T03:44:14.552Z,5
2016-05-11T03:45:14.904Z,5
2016-05-11T03:46:14.333Z,5
2016-05-11T03:47:14.463Z,5
2016-05-11T03:48:14.279Z,5
2016-05-11T03:49:14.424Z,5
2016-05-11T03:50:14.382Z,5
2016-05-11T03:51:14.340Z,5
2016-05-11T03:52:14.202Z,5
2016-05-11T03:53:14.128Z,5
2016-05-11T03:54:14.099Z,5
2016-05-11T03:55:14.243Z,10
2016-05-11T03:56:14.027Z,10
2016-05-11T03:57:14.155Z,10
2016-05-11T03:58:14.127Z,10
2016-05-11T03:59:13.942Z,10
2016-05-11T04:00:14.070Z,15
2016-05-11T04:01:14.028Z,15
2016-05-11T04:02:13.983Z,15
2016-05-11T04:03:13.814Z,15
2016-05-11T04:04:13.942Z,15
2016-05-11T04:05:13.741Z,15
2016-05-11T04:06:13.868Z,15
2016-05-11T04:07:13.683Z,20
2016-05-11T04:08:13.828Z,20
2016-05-11T04:09:13.767Z,20
2016-05-11T04:10:13.739Z,20
2016-05-11T04:11:13.429Z,20
2016-05-11T04:12:13.509Z,20
2016-05-11T04:13:13.480Z,20
2016-05-11T04:14:13.609Z,25
2016-05-11T04:15:13.549Z,25
2016-05-11T04:16:13.536Z,25
2016-05-11T04:17:13.554Z,25
2016-05-11T04:18:13.166Z,30
2016-05-11T04:19:13.279Z,30
2016-05-11T04:20:13.406Z,30
2016-05-11T04:21:13.362Z,35
2016-05-11T04:22:13.193Z,35
2016-05-11T04:23:13.304Z,35
2016-05-11T04:24:13.120Z,35
2016-05-11T04:25:13.232Z,35
2016-05-11T04:26:13.220Z,40
2016-05-11T04:27:13.035Z,40
2016-05-11T04:28:13.131Z,45
2016-05-11T04:29:13.118Z,45
2016-05-11T04:30:12.933Z,50
2016-05-11T04:31:13.061Z,50
2016-05-11T04:32:12.860Z,55
2016-05-11T04:33:13.004Z,60
2016-05-11T04:34:12.803Z,60
2016-05-11T04:35:12.946Z,65
2016-05-11T04:36:12.886Z,65
2016-05-11T04:37:12.889Z,70
2016-05-11T04:38:12.829Z,70
2016-05-11T04:39:12.645Z,70
2016-05-11T04:40:12.788Z,70
2016-05-11T04:41:12.744Z,75
2016-05-11T04:42:12.731Z,80
2016-05-11T04:43:12.515Z,85
2016-05-11T04:44:12.471Z,90
2016-05-11T04:45:12.489Z,105
2016-05-11T04:46:12.569Z,165
2016-05-11T04:47:12.541Z,200
2016-05-11T04:48:12.497Z,215
2016-05-11T04:49:12.327Z,210
2016-05-11T04:50:12.455Z,175
2016-05-11T04:51:12.412Z,125
2016-05-11T04:52:12.226Z,110
2016-05-11T04:53:12.354Z,110
2016-05-11T04:54:12.326Z,110
2016-05-11T04:55:12.281Z,110
2016-05-11T04:56:12.254Z,110
2016-05-11T04:57:12.223Z,110
2016-05-11T04:58:12.227Z,115
2016-05-11T04:59:12.214Z,115
2016-05-11T05:00:11.982Z,120
2016-05-11T05:01:12.125Z,125
2016-05-11T05:02:11.910Z,125
2016-05-11T05:03:12.022Z,130
2016-05-11T05:04:12.009Z,130
2016-05-11T05:05:11.996Z,135
2016-05-11T05:06:11.952Z,135
2016-05-11T05:07:11.908Z,140
2016-05-11T05:08:11.894Z,140
2016-05-11T05:09:11.850Z,140
2016-05-11T05:10:11.931Z,145
2016-05-11T05:11:11.637Z,150
2016-05-11T05:12:11.608Z,150
2016-05-11T05:13:11.767Z,155
2016-05-11T05:14:11.708Z,165
2016-05-11T05:15:11.976Z,180
2016-05-11T05:16:12.229Z,185
2016-05-11T05:17:11.607Z,185
2016-05-11T05:18:11.468Z,195
2016-05-11T05:19:12.080Z,200
2016-05-11T05:20:11.521Z,190
2016-05-11T05:21:11.367Z,180
2016-05-11T05:22:11.307Z,180
2016-05-11T05:23:11.529Z,185
2016-05-11T05:24:11.390Z,190
2016-05-11T05:25:11.379Z,195
2016-05-11T05:26:11.333Z,205
2016-05-11T05:27:11.149Z,225
2016-05-11T05:28:11.276Z,260
2016-05-11T05:29:11.185Z,345
2016-05-11T05:30:11.219Z,330
2016-05-11T05:31:11.035Z,280
2016-05-11T05:32:11.022Z,250
2016-05-11T05:33:11.134Z,240
2016-05-11T05:34:10.965Z,240
2016-05-11T05:35:11.076Z,240
2016-05-11T05:36:11.079Z,245
2016-05-11T05:37:11.003Z,250
2016-05-11T05:38:10.991Z,260
2016-05-11T05:39:10.806Z,275
2016-05-11T05:40:10.762Z,295
2016-05-11T05:41:10.749Z,340
2016-05-11T05:42:10.877Z,435
2016-05-11T05:43:10.692Z,620
2016-05-11T05:44:10.788Z,610
2016-05-11T05:45:10.650Z,485
2016-05-11T05:46:10.591Z,525
2016-05-11T05:47:10.718Z,490
2016-05-11T05:48:10.705Z,560
2016-05-11T05:49:10.661Z,545
2016-05-11T05:50:10.649Z,485
2016-05-11T05:51:10.666Z,470
2016-05-11T05:52:10.591Z,440
2016-05-11T05:53:10.390Z,420
2016-05-11T05:54:10.518Z,365
2016-05-11T05:55:10.349Z,315
2016-05-11T05:56:10.476Z,295
2016-05-11T05:57:10.292Z,290
2016-05-11T05:58:10.279Z,285
2016-05-11T05:59:10.406Z,280
2016-05-11T06:00:10.393Z,280
2016-05-11T06:01:10.381Z,280
2016-05-11T06:02:10.164Z,280
2016-05-11T06:03:10.293Z,290
2016-05-11T06:04:10.264Z,285
2016-05-11T06:05:10.236Z,290
2016-05-11T06:06:10.081Z,295
2016-05-11T06:07:10.037Z,295
2016-05-11T06:08:10.009Z,295
2016-05-11T06:09:10.136Z,305
2016-05-11T06:10:09.968Z,305
2016-05-11T06:11:10.095Z,305
2016-05-11T06:12:10.050Z,315
2016-05-11T06:13:10.023Z,315
2016-05-11T06:14:10.025Z,315
2016-05-11T06:15:09.825Z,330
2016-05-11T06:16:09.796Z,345
2016-05-11T06:17:09.924Z,345
2016-05-11T06:18:09.911Z,345
2016-05-11T06:19:09.944Z,340
2016-05-11T06:20:23.777Z,340
2016-05-11T06:21:16.778Z,350
2016-05-11T06:22:16.874Z,350
2016-05-11T06:23:11.019Z,350
2016-05-11T06:24:18.380Z,350
2016-05-11T06:25:12.710Z,355
2016-05-11T06:26:12.823Z,370
2016-05-11T06:27:11.513Z,380
2016-05-11T06:28:10.454Z,375
2016-05-11T06:29:10.394Z,385
2016-05-11T06:30:09.599Z,400
2016-05-11T06:31:10.071Z,405
2016-05-11T06:32:09.386Z,405
2016-05-11T06:33:09.499Z,420
2016-05-11T06:34:09.485Z,440
2016-05-11T06:35:09.442Z,485
2016-05-11T06:36:09.429Z,610
2016-05-11T06:37:09.400Z,610
2016-05-11T06:38:09.371Z,545
2016-05-11T06:39:09.342Z,525
2016-05-11T06:40:09.314Z,650
2016-05-11T06:41:09.161Z,575
2016-05-11T06:42:09.272Z,550
2016-05-11T06:43:09.259Z,555
2016-05-11T06:44:09.074Z,635
2016-05-11T06:45:09.046Z,675
2016-05-11T06:46:08.878Z,625
2016-05-11T06:47:09.130Z,645
2016-05-11T06:48:09.117Z,575
2016-05-11T06:49:09.088Z,520
2016-05-11T06:50:09.060Z,550
2016-05-11T06:51:09.063Z,590
2016-05-11T06:52:09.877Z,760
2016-05-11T06:53:09.802Z,640
2016-05-11T06:54:09.774Z,625
2016-05-11T06:55:09.120Z,625
2016-05-11T06:56:09.716Z,590
2016-05-11T06:57:09.688Z,580
2016-05-11T06:58:09.518Z,570
2016-05-11T06:59:09.646Z,575
2016-05-11T07:00:09.634Z,580
2016-05-11T07:01:09.308Z,575
2016-05-11T07:02:09.577Z,560
2016-05-11T07:03:09.531Z,555
2016-05-11T07:04:09.520Z,550
2016-05-11T07:05:09.351Z,545
2016-05-11T07:06:09.493Z,560
2016-05-11T07:07:09.434Z,575
2016-05-11T07:08:09.436Z,605
2016-05-11T07:09:09.251Z,670
2016-05-11T07:10:09.223Z,765
2016-05-11T07:11:09.366Z,865
2016-05-11T07:12:09.181Z,1430
2016-05-11T07:13:09.293Z,1300
2016-05-11T07:14:09.140Z,1525
2016-05-11T07:15:09.127Z,1635
2016-05-11T07:16:09.708Z,1840
2016-05-11T07:17:08.585Z,1945
2016-05-11T07:18:09.182Z,1940
2016-05-11T07:19:09.169Z,1185
2016-05-11T07:20:09.140Z,1905
2016-05-11T07:21:08.971Z,1855
2016-05-11T07:22:08.943Z,1935
2016-05-11T07:23:08.929Z,1955
2016-05-11T07:24:09.057Z,1975
2016-05-11T07:25:09.060Z,1860
2016-05-11T07:26:08.859Z,1845
2016-05-11T07:27:08.832Z,1880
2016-05-11T07:28:08.850Z,1840
2016-05-11T07:29:08.962Z,1760
2016-05-11T07:30:08.792Z,1570
2016-05-11T07:31:08.310Z,1580
2016-05-11T07:32:07.970Z,1715
2016-05-11T07:33:08.878Z,1735
2016-05-11T07:34:08.881Z,1635
2016-05-11T07:35:08.853Z,1600
2016-05-11T07:36:08.059Z,1665
2016-05-11T07:37:08.670Z,1565
2016-05-11T07:38:08.782Z,1500
2016-05-11T07:39:08.785Z,1400
2016-05-11T07:40:08.617Z,1365
2016-05-11T07:41:09.447Z,1315
2016-05-11T07:42:08.575Z,1230
2016-05-11T07:43:08.718Z,1140
2016-05-11T07:44:08.705Z,1110
2016-05-11T07:45:08.755Z,1135
2016-05-11T07:46:09.554Z,1075
2016-05-11T07:47:08.651Z,925
2016-05-11T07:48:08.013Z,1030
2016-05-11T07:49:08.516Z,1085
2016-05-11T07:50:08.611Z,1145
2016-05-11T07:51:09.521Z,1005
2016-05-11T07:52:07.788Z,920
2016-05-11T07:53:07.666Z,900
2016-05-11T07:54:08.530Z,870
2016-05-11T07:55:08.516Z,880
2016-05-11T07:56:08.550Z,900
2016-05-11T07:57:08.318Z,925
2016-05-11T07:58:08.476Z,970
2016-05-11T07:59:08.277Z,1000
2016-05-11T08:00:08.467Z,1090
2016-05-11T08:01:08.126Z,1150
2016-05-11T08:02:08.222Z,1175
2016-05-11T08:03:08.349Z,1160
2016-05-11T08:04:08.352Z,1190
2016-05-11T08:05:07.699Z,1170
2016-05-11T08:06:08.296Z,1085
2016-05-11T08:07:08.282Z,1045
2016-05-11T08:08:07.942Z,1005
2016-05-11T08:09:08.256Z,990
2016-05-11T08:10:07.587Z,1000
2016-05-11T08:11:08.215Z,1010
2016-05-11T08:12:08.218Z,1025
2016-05-11T08:13:07.533Z,1095
2016-05-11T08:14:08.129Z,965
2016-05-11T08:15:07.554Z,890
2016-05-11T08:16:07.556Z,860
2016-05-11T08:17:07.653Z,825
2016-05-11T08:18:08.078Z,800
2016-05-11T08:19:07.471Z,830
2016-05-11T08:20:08.020Z,870
2016-05-11T08:21:07.992Z,900
2016-05-11T08:22:07.369Z,930
2016-05-11T08:23:07.966Z,930
2016-05-11T08:24:07.781Z,990
2016-05-11T08:25:07.925Z,965
2016-05-11T08:26:07.943Z,1010
2016-05-11T08:27:07.868Z,975
2016-05-11T08:28:07.871Z,1095
2016-05-11T08:29:07.826Z,1205
2016-05-11T08:30:07.688Z,1285
2016-05-11T08:31:08.129Z,1525
2016-05-11T08:32:07.818Z,1425
2016-05-11T08:33:07.743Z,1270
2016-05-11T08:34:07.715Z,1090
2016-05-11T08:35:07.685Z,1130
2016-05-11T08:36:07.735Z,1230
2016-05-11T08:37:07.660Z,1405
2016-05-11T08:38:06.850Z,2115
2016-05-11T08:39:06.978Z,1955
2016-05-11T08:40:06.949Z,1760
2016-05-11T08:41:07.562Z,1450
2016-05-11T08:42:07.454Z,1285
2016-05-11T08:43:07.536Z,1095
2016-05-11T08:44:07.507Z,995
2016-05-11T08:45:07.337Z,875
2016-05-11T08:46:07.184Z,735
2016-05-11T08:47:06.672Z,765
2016-05-11T08:48:07.127Z,725
2016-05-11T08:49:07.412Z,735
2016-05-11T08:50:06.820Z,855
2016-05-11T08:51:07.369Z,765
2016-05-11T08:52:07.356Z,710
2016-05-11T08:53:07.328Z,740
2016-05-11T08:54:07.315Z,690
2016-05-11T08:55:07.286Z,670
2016-05-11T08:56:06.977Z,625
2016-05-11T08:57:07.089Z,605
2016-05-11T08:58:07.091Z,580
2016-05-11T08:59:06.563Z,560
2016-05-11T09:00:07.019Z,550
2016-05-11T09:01:07.802Z,535
2016-05-11T09:02:07.133Z,530
2016-05-11T09:03:06.168Z,520
2016-05-11T09:04:07.139Z,515
2016-05-11T09:05:07.126Z,515
2016-05-11T09:06:06.409Z,520
2016-05-11T09:07:07.022Z,515
2016-05-11T09:08:07.009Z,545
2016-05-11T09:09:06.995Z,540
2016-05-11T09:10:06.812Z,555
2016-05-11T09:11:06.767Z,560
2016-05-11T09:12:06.114Z,580
2016-05-11T09:13:06.882Z,605
2016-05-11T09:14:06.869Z,625
2016-05-11T09:15:06.825Z,625
2016-05-11T09:16:28.436Z,700
2016-05-11T09:17:06.830Z,640
2016-05-11T09:18:06.770Z,645
2016-05-11T09:19:06.585Z,670
2016-05-11T09:20:06.729Z,810
2016-05-11T09:21:06.716Z,855
2016-05-11T09:22:06.031Z,1120
2016-05-11T09:23:06.503Z,1310
2016-05-11T09:24:06.646Z,1205
2016-05-11T09:25:06.586Z,1330
2016-05-11T09:26:06.277Z,1610
2016-05-11T09:27:06.544Z,1530
2016-05-11T09:28:06.532Z,1285
2016-05-11T09:29:06.347Z,1025
2016-05-11T09:30:06.474Z,980
2016-05-11T09:31:06.446Z,1140
2016-05-11T09:32:06.449Z,980
2016-05-11T09:33:06.263Z,720
2016-05-11T09:34:06.454Z,695
2016-05-11T09:35:06.394Z,730
2016-05-11T09:36:06.193Z,820
2016-05-11T09:37:06.337Z,880
2016-05-11T09:38:05.526Z,865
2016-05-11T09:39:06.140Z,885
2016-05-11T09:40:06.268Z,1330
2016-05-11T09:41:06.254Z,1390
2016-05-11T09:42:06.210Z,1080
2016-05-11T09:43:06.197Z,1175
2016-05-11T09:44:05.559Z,1095
2016-05-11T09:45:05.202Z,925
2016-05-11T09:46:06.220Z,790
2016-05-11T09:47:06.098Z,815
2016-05-11T09:48:06.086Z,800
2016-05-11T09:49:06.088Z,810
2016-05-11T09:50:06.059Z,840
2016-05-11T09:51:06.047Z,825
2016-05-11T09:52:06.034Z,790
2016-05-11T09:53:05.677Z,785
2016-05-11T09:54:05.961Z,725
2016-05-11T09:55:05.807Z,700
2016-05-11T09:56:05.935Z,695
2016-05-11T09:57:05.594Z,1170
2016-05-11T09:58:05.738Z,700
2016-05-11T09:59:05.849Z,685
2016-05-11T10:00:05.680Z,655
2016-05-11T10:01:06.151Z,630
2016-05-11T10:02:05.794Z,615
2016-05-11T10:03:05.797Z,615
2016-05-11T10:04:05.753Z,615
2016-05-11T10:05:05.553Z,705
2016-05-11T10:06:05.680Z,640
2016-05-11T10:07:05.043Z,665
2016-05-11T10:08:05.640Z,685
2016-05-11T10:09:05.626Z,630
2016-05-11T10:10:05.473Z,605
2016-05-11T10:11:05.601Z,575
2016-05-11T10:12:05.556Z,545
2016-05-11T10:13:05.543Z,520
2016-05-11T10:14:05.515Z,510
2016-05-11T10:15:05.501Z,495
2016-05-11T10:16:05.504Z,480
2016-05-11T10:17:05.289Z,470
2016-05-11T10:18:05.431Z,460
2016-05-11T10:19:04.763Z,465
2016-05-11T10:20:05.422Z,465
2016-05-11T10:21:05.362Z,465
2016-05-11T10:22:05.333Z,470
2016-05-11T10:23:05.319Z,470
2016-05-11T10:24:05.120Z,480
2016-05-11T10:25:05.263Z,490
2016-05-11T10:26:05.250Z,520
2016-05-11T10:27:05.066Z,560
2016-05-11T10:28:04.568Z,575
2016-05-11T10:29:05.180Z,695
2016-05-11T10:30:04.074Z,1070
2016-05-11T10:31:05.435Z,1010
2016-05-11T10:32:52.080Z,645
2016-05-11T10:33:04.910Z,645
2016-05-11T10:34:05.069Z,670
2016-05-11T10:35:05.040Z,680
2016-05-11T10:36:05.012Z,670
2016-05-11T10:37:04.842Z,790
2016-05-11T10:38:04.955Z,745
2016-05-11T10:39:04.926Z,685
2016-05-11T10:40:04.772Z,645
2016-05-11T10:41:04.260Z,690
2016-05-11T10:42:04.872Z,640
2016-05-11T10:43:04.827Z,630
2016-05-11T10:44:04.220Z,720
2016-05-11T10:45:04.176Z,810
2016-05-11T10:46:04.992Z,830
2016-05-11T10:47:04.103Z,725
2016-05-11T10:48:04.184Z,830
2016-05-11T10:49:07.968Z,980
2016-05-11T10:50:04.034Z,870
2016-05-11T10:51:04.676Z,620
2016-05-11T10:52:04.633Z,625
2016-05-11T10:53:04.479Z,715
2016-05-11T10:54:05.982Z,655
2016-05-11T10:55:04.422Z,725
2016-05-11T10:56:04.394Z,630
2016-05-11T10:57:04.224Z,585
2016-05-11T10:58:03.867Z,585
2016-05-11T10:59:05.339Z,520
2016-05-11T11:00:04.451Z,480
2016-05-11T11:01:04.891Z,460
2016-05-11T11:02:04.410Z,450
2016-05-11T11:03:03.444Z,440
2016-05-11T11:04:05.853Z,440
2016-05-11T11:05:04.339Z,445
2016-05-11T11:06:04.342Z,455
2016-05-11T11:07:04.299Z,455
2016-05-11T11:08:04.269Z,460
2016-05-11T11:09:04.272Z,455
2016-05-11T11:10:04.227Z,460
2016-05-11T11:11:05.263Z,460
2016-05-11T11:12:04.202Z,465
2016-05-11T11:13:04.142Z,470
2016-05-11T11:14:04.896Z,475
2016-05-11T11:15:04.116Z,480
2016-05-11T11:16:03.306Z,490
2016-05-11T11:17:04.121Z,495
2016-05-11T11:18:04.094Z,510
2016-05-11T11:19:04.768Z,510
2016-05-11T11:20:03.848Z,520
2016-05-11T11:21:04.008Z,520
2016-05-11T11:22:03.932Z,520
2016-05-11T11:23:03.404Z,520
2016-05-11T11:24:04.703Z,520
2016-05-11T11:25:03.878Z,510
2016-05-11T11:26:03.850Z,500
2016-05-11T11:27:03.836Z,495
2016-05-11T11:28:03.042Z,490
2016-05-11T11:29:04.264Z,475
2016-05-11T11:30:03.766Z,460
2016-05-11T11:31:03.144Z,435
2016-05-11T11:32:03.631Z,420
2016-05-11T11:33:03.728Z,395
2016-05-11T11:34:04.792Z,365
2016-05-11T11:35:03.639Z,345
2016-05-11T11:36:03.626Z,330
2016-05-11T11:37:03.597Z,320
2016-05-11T11:38:02.944Z,320
2016-05-11T11:39:05.227Z,325
2016-05-11T11:40:03.512Z,335
2016-05-11T11:41:03.499Z,350
2016-05-11T11:42:03.486Z,350
2016-05-11T11:43:03.457Z,355
2016-05-11T11:44:03.507Z,355
2016-05-11T11:45:02.776Z,360
2016-05-11T11:46:03.529Z,360
2016-05-11T11:47:03.359Z,365
2016-05-11T11:48:03.330Z,365
2016-05-11T11:49:03.896Z,365
2016-05-11T11:50:03.351Z,365
2016-05-11T11:51:03.244Z,365
2016-05-11T11:52:03.295Z,365
2016-05-11T11:53:02.593Z,355
2016-05-11T11:54:03.456Z,350
2016-05-11T11:55:03.161Z,340
2016-05-11T11:56:03.009Z,330
2016-05-11T11:57:03.151Z,325
2016-05-11T11:58:03.091Z,315
2016-05-11T11:59:03.564Z,310
2016-05-11T12:00:03.395Z,300
2016-05-11T12:01:02.459Z,290
2016-05-11T12:02:02.977Z,275
2016-05-11T12:03:02.980Z,260
2016-05-11T12:04:02.202Z,255
2016-05-11T12:05:01.954Z,250
2016-05-11T12:06:02.097Z,240
2016-05-11T12:07:02.085Z,235
2016-05-11T12:08:02.025Z,240
2016-05-11T12:09:02.011Z,245
2016-05-11T12:10:01.843Z,260
2016-05-11T12:11:02.033Z,275
2016-05-11T12:12:01.958Z,280
2016-05-11T12:13:01.913Z,290
2016-05-11T12:14:01.744Z,290
2016-05-11T12:15:01.543Z,295
2016-05-11T12:16:02.155Z,295
2016-05-11T12:17:01.674Z,300
2016-05-11T12:18:01.785Z,305
2016-05-11T12:19:01.601Z,305
2016-05-11T12:20:01.745Z,310
2016-05-11T12:21:01.560Z,305
2016-05-11T12:22:01.703Z,305
2016-05-11T12:23:01.737Z,305
2016-05-11T12:24:01.646Z,300
2016-05-11T12:25:01.617Z,300
2016-05-11T12:26:01.604Z,295
2016-05-11T12:27:01.420Z,295
2016-05-11T12:28:01.579Z,300
2016-05-11T12:29:01.519Z,300
2016-05-11T12:30:01.490Z,310
2016-05-11T12:31:01.336Z,305
2016-05-11T12:32:01.480Z,310
2016-05-11T12:33:01.420Z,310
2016-05-11T12:34:01.078Z,310
2016-05-11T12:35:01.363Z,310
2016-05-11T12:36:01.350Z,310
2016-05-11T12:37:01.191Z,310
2016-05-11T12:38:01.397Z,310
2016-05-11T12:39:01.431Z,305
2016-05-11T12:40:01.419Z,300
2016-05-11T12:41:01.437Z,295
2016-05-11T12:42:01.439Z,295
2016-05-11T12:43:01.303Z,290
2016-05-11T12:44:01.400Z,275
2016-05-11T12:45:01.420Z,265
2016-05-11T12:46:01.253Z,250
2016-05-11T12:47:01.391Z,240
2016-05-11T12:48:01.056Z,235
2016-05-11T12:49:01.346Z,225
2016-05-11T12:50:01.339Z,210
2016-05-11T12:51:01.317Z,195
2016-05-11T12:52:01.276Z,185
2016-05-11T12:53:01.266Z,185
2016-05-11T12:54:01.254Z,190
2016-05-11T12:55:01.212Z,195
2016-05-11T12:56:01.202Z,205
2016-05-11T12:57:01.158Z,210
2016-05-11T12:58:01.146Z,220
2016-05-11T12:59:00.978Z,225
2016-05-11T13:00:01.092Z,230
2016-05-11T13:01:01.313Z,235
2016-05-11T13:02:01.035Z,240
2016-05-11T13:03:00.866Z,240
2016-05-11T13:04:00.838Z,240
2016-05-11T13:05:00.966Z,240
2016-05-11T13:06:00.938Z,240
2016-05-11T13:07:00.925Z,235
2016-05-11T13:08:00.896Z,235
2016-05-11T13:09:00.868Z,235
2016-05-11T13:10:00.839Z,235
2016-05-11T13:11:00.810Z,230
2016-05-11T13:12:00.641Z,225
2016-05-11T13:13:00.629Z,220
2016-05-11T13:14:00.725Z,215
2016-05-11T13:15:00.712Z,210
2016-05-11T13:16:01.449Z,210
2016-05-11T13:17:00.668Z,205
2016-05-11T13:18:00.640Z,205
2016-05-11T13:19:00.454Z,200
2016-05-11T13:20:00.566Z,195
2016-05-11T13:21:00.554Z,190
2016-05-11T13:22:00.556Z,180
2016-05-11T13:23:00.497Z,175
2016-05-11T13:24:00.468Z,165
2016-05-11T13:25:00.454Z,160
2016-05-11T13:26:00.412Z,155
2016-05-11T13:27:00.398Z,150
2016-05-11T13:28:00.212Z,150
2016-05-11T13:29:00.185Z,150
2016-05-11T13:30:00.343Z,150
2016-05-11T13:31:00.190Z,150
2016-05-11T13:32:00.256Z,150
2016-05-11T13:33:00.227Z,150
2016-05-11T13:34:00.214Z,155
2016-05-11T13:35:00.170Z,155
2016-05-11T13:36:00.016Z,160
2016-05-11T13:36:59.831Z,160
2016-05-11T13:38:00.114Z,155
2016-05-11T13:39:00.103Z,155
2016-05-11T13:40:00.074Z,155
2016-05-11T13:40:59.873Z,150
2016-05-11T13:41:59.844Z,150
2016-05-11T13:42:59.972Z,145
2016-05-11T13:43:59.944Z,145
2016-05-11T13:44:59.806Z,145
2016-05-11T13:46:00.403Z,145
2016-05-11T13:46:59.718Z,150
2016-05-11T13:47:59.689Z,150
2016-05-11T13:48:59.660Z,155
2016-05-11T13:49:59.632Z,155
2016-05-11T13:50:59.822Z,155
2016-05-11T13:51:59.794Z,160
2016-05-11T13:52:59.562Z,160
2016-05-11T13:53:59.579Z,160
2016-05-11T13:54:59.692Z,165
2016-05-11T13:55:59.679Z,165
2016-05-11T13:56:59.557Z,170
2016-05-11T13:57:59.419Z,170
2016-05-11T13:58:59.547Z,170
2016-05-11T13:59:59.534Z,175